Time;durP1;ratioP1;P1;durP2;ratioP2;P2;SDS_P1;SDS_P2;PMS_P1;PMS_P2;Temp;Humidity;BMP_temperature;BMP_pressure;BME280_temperature;BME280_humidity;BME280_pressure;Samples;Min_cycle;Max_cycle;Signal;HPM_P1;HPM_P2
2023/10/04 00:02:13;;;;;;;0.50;0.50;;;;;;;;;;4968045;28;20037;-62
2023/10/04 00:04:43;;;;;;;0.60;0.60;;;;;;;;;;4972816;28;20042;-62
2023/10/04 00:07:08;;;;;;;0.60;0.60;;;;;;;;;;4971561;28;20035;-61
2023/10/04 00:09:34;;;;;;;0.50;0.50;;;;;;;;;;4981599;28;20373;-63
2023/10/04 00:12:00;;;;;;;0.60;0.60;;;;;;;;;;4975316;28;20489;-61
2023/10/04 00:14:26;;;;;;;0.60;0.60;;;;;;;;;;4974974;28;20022;-62
2023/10/04 00:16:52;;;;;;;0.60;0.60;;;;;;;;;;4975559;28;20045;-64
2023/10/04 00:19:18;;;;;;;0.60;0.60;;;;;;;;;;4972046;28;20093;-61
2023/10/04 00:21:43;;;;;;;0.60;0.60;;;;;;;;;;4975151;28;20492;-63
2023/10/04 00:24:09;;;;;;;0.60;0.60;;;;;;;;;;4970798;28;20031;-63
2023/10/04 00:26:35;;;;;;;0.65;0.65;;;;;;;;;;4975265;28;20018;-61
2023/10/04 00:29:00;;;;;;;0.60;0.60;;;;;;;;;;4976026;28;20392;-62
2023/10/04 00:31:26;;;;;;;0.52;0.52;;;;;;;;;;4974447;28;20031;-61
2023/10/04 00:33:52;;;;;;;0.50;0.50;;;;;;;;;;4973564;28;20038;-62
2023/10/04 00:36:21;;;;;;;0.60;0.60;;;;;;;;;;4972055;28;20029;-64
2023/10/04 00:38:47;;;;;;;0.60;0.60;;;;;;;;;;4980606;28;20061;-64
2023/10/04 00:41:12;;;;;;;0.60;0.60;;;;;;;;;;4968690;28;20035;-63
2023/10/04 00:43:50;;;;;;;0.60;0.60;;;;;;;;;;4973649;28;20022;-62
2023/10/04 00:46:18;;;;;;;0.60;0.60;;;;;;;;;;4971002;28;20022;-63
2023/10/04 00:48:44;;;;;;;0.60;0.60;;;;;;;;;;4978430;28;20043;-64
2023/10/04 00:51:12;;;;;;;0.60;0.60;;;;;;;;;;4959358;28;20554;-61
2023/10/04 00:53:37;;;;;;;0.60;0.60;;;;;;;;;;4970318;28;20431;-62
2023/10/04 00:56:04;;;;;;;0.57;0.57;;;;;;;;;;4968825;28;20041;-62
2023/10/04 00:58:29;;;;;;;0.60;0.60;;;;;;;;;;4971613;28;20043;-64
2023/10/04 01:00:54;;;;;;;0.60;0.60;;;;;;;;;;4973037;28;20037;-62
2023/10/04 01:03:20;;;;;;;0.60;0.60;;;;;;;;;;4969268;28;20066;-61
2023/10/04 01:05:51;;;;;;;0.63;0.63;;;;;;;;;;4971866;28;20484;-63
2023/10/04 01:08:22;;;;;;;0.60;0.60;;;;;;;;;;4974888;28;20045;-65
2023/10/04 01:10:51;;;;;;;0.60;0.60;;;;;;;;;;4980413;28;20035;-63
2023/10/04 01:13:21;;;;;;;0.50;0.50;;;;;;;;;;4977579;28;20570;-60
2023/10/04 01:15:49;;;;;;;0.60;0.60;;;;;;;;;;4973288;28;20133;-62
2023/10/04 01:18:16;;;;;;;;;;;;;;;;;;4979702;28;20030;-61
2023/10/04 01:20:42;;;;;;;0.60;0.60;;;;;;;;;;4974549;28;19917;-62
2023/10/04 01:23:10;;;;;;;0.70;0.70;;;;;;;;;;4974653;28;20030;-63
2023/10/04 01:25:39;;;;;;;0.60;0.60;;;;;;;;;;4977439;28;20448;-61
2023/10/04 01:28:12;;;;;;;0.60;0.60;;;;;;;;;;4978577;28;20032;-62
2023/10/04 01:30:41;;;;;;;0.60;0.60;;;;;;;;;;4973575;28;20410;-64
2023/10/04 01:33:16;;;;;;;0.60;0.60;;;;;;;;;;4970226;28;20074;-63
2023/10/04 01:35:41;;;;;;;0.50;0.50;;;;;;;;;;4988808;28;20081;-61
2023/10/04 01:38:07;;;;;;;0.68;0.68;;;;;;;;;;4978604;28;20027;-60
2023/10/04 01:40:34;;;;;;;0.60;0.60;;;;;;;;;;4978728;28;20068;-61
2023/10/04 01:42:59;;;;;;;0.60;0.60;;;;;;;;;;4978795;28;20031;-62
2023/10/04 01:45:25;;;;;;;0.60;0.60;;;;;;;;;;4979891;28;20027;-62
2023/10/04 01:47:51;;;;;;;0.70;0.70;;;;;;;;;;4977376;28;20761;-62
2023/10/04 01:50:17;;;;;;;0.60;0.60;;;;;;;;;;4975537;28;20087;-61
2023/10/04 01:52:45;;;;;;;0.60;0.60;;;;;;;;;;4980798;28;20032;-62
2023/10/04 01:55:12;;;;;;;0.60;0.60;;;;;;;;;;4981674;28;20057;-62
2023/10/04 01:57:41;;;;;;;0.60;0.60;;;;;;;;;;4981785;28;20524;-65
2023/10/04 02:00:10;;;;;;;0.70;0.70;;;;;;;;;;4965962;28;20023;-62
2023/10/04 02:02:40;;;;;;;0.60;0.60;;;;;;;;;;4974863;28;20667;-61
2023/10/04 02:05:09;;;;;;;0.70;0.70;;;;;;;;;;4975269;28;20034;-62
2023/10/04 02:07:38;;;;;;;0.60;0.60;;;;;;;;;;4991897;28;20031;-61
2023/10/04 02:10:05;;;;;;;0.70;0.70;;;;;;;;;;4977008;28;20054;-61
2023/10/04 02:12:33;;;;;;;0.60;0.60;;;;;;;;;;4975848;28;20027;-64
2023/10/04 02:14:58;;;;;;;0.60;0.60;;;;;;;;;;4976202;28;20037;-66
2023/10/04 02:17:24;;;;;;;0.70;0.70;;;;;;;;;;4968473;28;20030;-64
2023/10/04 02:19:49;;;;;;;0.60;0.60;;;;;;;;;;4969019;28;20050;-62
2023/10/04 02:22:15;;;;;;;0.60;0.60;;;;;;;;;;4974058;28;20055;-63
2023/10/04 02:24:40;;;;;;;0.68;0.68;;;;;;;;;;4976987;28;20096;-63
2023/10/04 02:27:08;;;;;;;0.60;0.60;;;;;;;;;;4978571;28;20129;-65
2023/10/04 02:29:34;;;;;;;0.60;0.60;;;;;;;;;;4973341;28;20037;-64
2023/10/04 02:32:06;;;;;;;0.52;0.52;;;;;;;;;;4976793;28;20109;-62
2023/10/04 02:34:32;;;;;;;0.70;0.70;;;;;;;;;;4965651;28;20143;-63
2023/10/04 02:36:57;;;;;;;0.60;0.60;;;;;;;;;;4979184;28;20054;-64
2023/10/04 02:39:24;;;;;;;0.60;0.60;;;;;;;;;;4972769;28;20027;-62
2023/10/04 02:41:49;;;;;;;0.70;0.70;;;;;;;;;;4978976;28;20477;-63
2023/10/04 02:44:17;;;;;;;0.60;0.60;;;;;;;;;;4974525;28;20093;-64
2023/10/04 02:46:44;;;;;;;0.70;0.70;;;;;;;;;;4975695;28;20161;-66
2023/10/04 02:49:10;;;;;;;0.70;0.70;;;;;;;;;;4972675;28;20038;-62
2023/10/04 02:51:35;;;;;;;0.60;0.60;;;;;;;;;;4975598;28;20027;-63
2023/10/04 02:54:02;;;;;;;0.60;0.60;;;;;;;;;;4974973;28;20376;-62
2023/10/04 02:56:28;;;;;;;0.70;0.70;;;;;;;;;;4968747;28;20034;-62
2023/10/04 02:58:53;;;;;;;0.70;0.70;;;;;;;;;;4973187;28;20030;-65
2023/10/04 03:01:26;;;;;;;0.60;0.60;;;;;;;;;;4979637;28;20475;-61
2023/10/04 03:03:53;;;;;;;0.70;0.70;;;;;;;;;;4974981;28;22156;-67
2023/10/04 03:06:24;;;;;;;0.60;0.60;;;;;;;;;;4975476;28;20027;-63
2023/10/04 03:08:51;;;;;;;0.60;0.60;;;;;;;;;;4972785;28;20694;-65
2023/10/04 03:11:17;;;;;;;0.60;0.60;;;;;;;;;;4957043;28;20031;-62
2023/10/04 03:13:42;;;;;;;0.65;0.65;;;;;;;;;;4970601;28;20034;-61
2023/10/04 03:16:09;;;;;;;0.60;0.60;;;;;;;;;;4968837;28;20077;-63
2023/10/04 03:18:37;;;;;;;0.60;0.60;;;;;;;;;;4982255;28;20044;-62
2023/10/04 03:23:35;;;;;;;0.60;0.60;;;;;;;;;;4974838;28;20027;-64
2023/10/04 03:26:03;;;;;;;0.60;0.60;;;;;;;;;;4983618;28;20038;-61
2023/10/04 03:28:37;;;;;;;0.60;0.60;;;;;;;;;;4980471;28;20641;-64
2023/10/04 03:31:14;;;;;;;0.60;0.60;;;;;;;;;;4968765;28;20149;-61
2023/10/04 03:33:43;;;;;;;0.70;0.70;;;;;;;;;;4969464;28;20053;-64
2023/10/04 03:36:14;;;;;;;0.65;0.65;;;;;;;;;;4979322;28;20034;-63
2023/10/04 03:38:41;;;;;;;0.60;0.60;;;;;;;;;;4963847;28;20117;-62
2023/10/04 03:41:07;;;;;;;0.60;0.60;;;;;;;;;;4977352;28;20414;-64
2023/10/04 03:43:36;;;;;;;0.60;0.60;;;;;;;;;;4980683;28;20429;-65
2023/10/04 03:46:18;;;;;;;0.60;0.60;;;;;;;;;;4974241;28;20084;-63
2023/10/04 03:48:45;;;;;;;0.70;0.70;;;;;;;;;;4973450;28;20043;-61
2023/10/04 03:51:11;;;;;;;0.70;0.70;;;;;;;;;;4965567;28;20026;-65
2023/10/04 03:53:36;;;;;;;0.70;0.70;;;;;;;;;;4982311;28;20043;-61
2023/10/04 03:56:04;;;;;;;0.63;0.63;;;;;;;;;;4970904;28;20415;-63
2023/10/04 03:58:31;;;;;;;0.60;0.60;;;;;;;;;;4971859;28;20038;-63
2023/10/04 04:00:56;;;;;;;0.60;0.60;;;;;;;;;;4955112;28;20393;-61
2023/10/04 04:03:22;;;;;;;0.70;0.70;;;;;;;;;;4974445;28;20027;-61
2023/10/04 04:05:48;;;;;;;0.60;0.60;;;;;;;;;;4970914;28;20758;-62
2023/10/04 04:08:14;;;;;;;0.60;0.60;;;;;;;;;;4978474;28;20182;-62
2023/10/04 04:10:43;;;;;;;0.60;0.60;;;;;;;;;;4967249;28;20106;-65
2023/10/04 04:13:08;;;;;;;0.70;0.70;;;;;;;;;;4968454;28;20030;-64
2023/10/04 04:15:35;;;;;;;0.60;0.60;;;;;;;;;;4966102;28;20038;-63
2023/10/04 04:18:13;;;;;;;0.60;0.60;;;;;;;;;;4981085;28;20030;-61
2023/10/04 04:20:41;;;;;;;0.60;0.60;;;;;;;;;;4974840;28;20445;-63
2023/10/04 04:23:08;;;;;;;0.70;0.70;;;;;;;;;;4990381;28;20358;-62
2023/10/04 04:25:34;;;;;;;0.70;0.70;;;;;;;;;;4971698;28;20039;-62
2023/10/04 04:28:01;;;;;;;0.70;0.70;;;;;;;;;;4973327;28;20031;-62
2023/10/04 04:30:35;;;;;;;0.60;0.60;;;;;;;;;;4976508;28;20488;-64
2023/10/04 04:33:07;;;;;;;0.60;0.60;;;;;;;;;;4981938;28;20384;-64
2023/10/04 04:40:35;;;;;;;0.70;0.70;;;;;;;;;;4973573;28;20030;-65
2023/10/04 04:43:14;;;;;;;0.70;0.70;;;;;;;;;;4952141;28;20098;-62
2023/10/04 04:45:48;;;;;;;0.68;0.68;;;;;;;;;;4975867;28;20481;-64
2023/10/04 04:48:15;;;;;;;0.60;0.60;;;;;;;;;;4986185;28;20035;-61
2023/10/04 04:50:41;;;;;;;0.70;0.70;;;;;;;;;;4977730;28;20035;-63
2023/10/04 04:53:11;;;;;;;0.60;0.60;;;;;;;;;;4959388;28;20492;-62
2023/10/04 04:55:36;;;;;;;0.60;0.60;;;;;;;;;;4980371;28;20030;-63
2023/10/04 04:58:02;;;;;;;0.60;0.60;;;;;;;;;;4978806;28;20031;-62
2023/10/04 05:00:31;;;;;;;0.60;0.60;;;;;;;;;;4984074;28;20038;-61
2023/10/04 05:02:57;;;;;;;0.70;0.70;;;;;;;;;;4972834;28;20034;-63
2023/10/04 05:05:23;;;;;;;0.63;0.63;;;;;;;;;;4975837;28;20096;-63
2023/10/04 05:07:48;;;;;;;0.70;0.70;;;;;;;;;;4971309;28;20666;-61
2023/10/04 05:10:14;;;;;;;0.60;0.60;;;;;;;;;;4969828;28;20030;-64
2023/10/04 05:12:40;;;;;;;0.60;0.60;;;;;;;;;;4968922;28;20425;-62
2023/10/04 05:15:21;;;;;;;0.70;0.70;;;;;;;;;;4979476;28;20045;-65
2023/10/04 05:17:50;;;;;;;0.70;0.70;;;;;;;;;;4976077;28;20035;-62
2023/10/04 05:20:19;;;;;;;0.70;0.70;;;;;;;;;;4981211;28;20688;-62
2023/10/04 05:22:45;;;;;;;0.60;0.60;;;;;;;;;;4973010;28;20031;-62
2023/10/04 05:25:11;;;;;;;0.70;0.70;;;;;;;;;;4971670;28;20062;-64
2023/10/04 05:27:36;;;;;;;0.60;0.60;;;;;;;;;;4971278;28;20158;-61
2023/10/04 05:30:02;;;;;;;0.60;0.60;;;;;;;;;;4972013;28;20109;-61
2023/10/04 05:32:27;;;;;;;0.70;0.70;;;;;;;;;;4979596;28;20027;-64
2023/10/04 05:34:53;;;;;;;0.60;0.60;;;;;;;;;;4977570;28;20475;-63
2023/10/04 05:37:18;;;;;;;0.70;0.70;;;;;;;;;;4977257;28;20034;-62
2023/10/04 05:39:43;;;;;;;0.60;0.60;;;;;;;;;;4976957;28;20431;-63
2023/10/04 05:42:09;;;;;;;0.70;0.70;;;;;;;;;;4979122;28;20022;-62
2023/10/04 05:44:34;;;;;;;0.60;0.60;;;;;;;;;;4975694;28;20026;-65
2023/10/04 05:46:59;;;;;;;0.70;0.70;;;;;;;;;;4970257;28;20065;-62
2023/10/04 05:49:26;;;;;;;0.70;0.70;;;;;;;;;;4971160;28;20471;-62
2023/10/04 05:51:51;;;;;;;0.70;0.70;;;;;;;;;;4973939;28;20042;-62
2023/10/04 05:54:17;;;;;;;0.70;0.70;;;;;;;;;;4982362;28;20027;-64
2023/10/04 05:56:42;;;;;;;0.70;0.70;;;;;;;;;;4974785;28;20065;-65
2023/10/04 05:59:10;;;;;;;0.70;0.70;;;;;;;;;;4978471;28;20528;-61
2023/10/04 06:01:37;;;;;;;0.70;0.70;;;;;;;;;;4971192;28;20093;-66
2023/10/04 06:04:05;;;;;;;0.73;0.73;;;;;;;;;;4969687;28;20461;-61
2023/10/04 06:06:32;;;;;;;0.60;0.60;;;;;;;;;;4970405;28;20026;-61
2023/10/04 06:08:58;;;;;;;0.70;0.70;;;;;;;;;;4973939;28;20042;-60
2023/10/04 06:11:24;;;;;;;0.70;0.70;;;;;;;;;;4970931;28;20062;-65
2023/10/04 06:13:50;;;;;;;0.70;0.70;;;;;;;;;;4980333;28;20026;-62
2023/10/04 06:16:19;;;;;;;0.70;0.70;;;;;;;;;;4978274;28;20055;-62
2023/10/04 06:18:47;;;;;;;0.70;0.70;;;;;;;;;;4974721;28;20052;-63
2023/10/04 06:21:12;;;;;;;;;;;;;;;;;;4980028;28;20037;-64
2023/10/04 06:23:37;;;;;;;0.77;0.77;;;;;;;;;;4971415;28;20245;-61
2023/10/04 06:26:03;;;;;;;0.70;0.70;;;;;;;;;;4968513;28;20031;-64
2023/10/04 06:28:28;;;;;;;0.70;0.70;;;;;;;;;;4971559;28;20031;-61
2023/10/04 06:30:53;;;;;;;0.70;0.70;;;;;;;;;;4970631;28;20034;-62
2023/10/04 06:33:19;;;;;;;0.60;0.60;;;;;;;;;;4975330;28;20031;-62
2023/10/04 06:35:46;;;;;;;0.60;0.60;;;;;;;;;;4978774;28;20390;-62
2023/10/04 06:38:12;;;;;;;0.60;0.60;;;;;;;;;;4973445;28;20578;-63
2023/10/04 06:40:38;;;;;;;0.60;0.60;;;;;;;;;;4971580;28;20332;-66
2023/10/04 06:43:08;;;;;;;0.60;0.60;;;;;;;;;;4967260;28;20132;-62
2023/10/04 06:45:34;;;;;;;0.60;0.60;;;;;;;;;;4966412;28;20126;-63
2023/10/04 06:48:00;;;;;;;0.60;0.60;;;;;;;;;;4965683;28;20130;-61
2023/10/04 06:50:32;;;;;;;0.57;0.57;;;;;;;;;;4968499;28;20031;-62
2023/10/04 06:52:58;;;;;;;0.60;0.60;;;;;;;;;;4971538;28;20047;-64
2023/10/04 06:55:23;;;;;;;0.60;0.60;;;;;;;;;;4965754;28;20515;-63
2023/10/04 06:57:49;;;;;;;0.60;0.60;;;;;;;;;;4968466;28;20034;-62
2023/10/04 07:00:15;;;;;;;0.60;0.60;;;;;;;;;;4969832;28;20022;-62
2023/10/04 07:02:43;;;;;;;0.70;0.70;;;;;;;;;;4966199;28;20062;-66
2023/10/04 07:05:08;;;;;;;0.50;0.50;;;;;;;;;;4966001;28;20030;-62
2023/10/04 07:07:34;;;;;;;0.50;0.50;;;;;;;;;;4969076;28;20044;-65
2023/10/04 07:10:01;;;;;;;0.50;0.50;;;;;;;;;;4966421;28;20057;-63
2023/10/04 07:12:26;;;;;;;0.60;0.60;;;;;;;;;;4970339;28;20105;-67
2023/10/04 07:14:52;;;;;;;0.52;0.52;;;;;;;;;;4968630;28;20165;-64
2023/10/04 07:17:19;;;;;;;0.50;0.50;;;;;;;;;;4955160;28;20472;-62
2023/10/04 07:19:44;;;;;;;0.50;0.50;;;;;;;;;;4959918;28;20046;-63
2023/10/04 07:22:10;;;;;;;0.50;0.50;;;;;;;;;;4961056;28;20019;-61
2023/10/04 07:24:37;;;;;;;0.50;0.50;;;;;;;;;;4959683;28;20019;-63
2023/10/04 07:27:02;;;;;;;;;;;;;;;;;;4967194;28;20136;-62
2023/10/04 07:29:29;;;;;;;0.50;0.50;;;;;;;;;;4965906;28;19926;-63
2023/10/04 07:31:55;;;;;;;0.60;0.60;;;;;;;;;;4966008;28;20034;-62
2023/10/04 07:34:23;;;;;;;0.53;0.53;;;;;;;;;;4968982;28;20030;-66
2023/10/04 07:36:49;;;;;;;0.40;0.40;;;;;;;;;;4960939;28;20061;-64
2023/10/04 07:39:15;;;;;;;0.40;0.40;;;;;;;;;;4965230;28;20141;-61
2023/10/04 07:41:41;;;;;;;0.50;0.50;;;;;;;;;;4962083;28;20066;-62
2023/10/04 07:44:06;;;;;;;0.50;0.50;;;;;;;;;;4968100;28;20038;-61
2023/10/04 07:46:31;;;;;;;0.50;0.50;;;;;;;;;;4969346;28;20053;-63
2023/10/04 07:48:59;;;;;;;0.40;0.40;;;;;;;;;;4965106;28;20033;-64
2023/10/04 07:51:25;;;;;;;0.40;0.40;;;;;;;;;;4986028;28;20030;-66
2023/10/04 07:53:52;;;;;;;0.35;0.35;;;;;;;;;;4962808;28;20019;-62
2023/10/04 07:56:18;;;;;;;0.40;0.40;;;;;;;;;;4962144;28;20041;-64
2023/10/04 07:58:43;;;;;;;0.40;0.40;;;;;;;;;;4969755;28;20114;-63
2023/10/04 08:01:08;;;;;;;0.40;0.40;;;;;;;;;;4962913;28;20122;-62
2023/10/04 08:03:33;;;;;;;0.40;0.40;;;;;;;;;;4972016;28;20483;-64
2023/10/04 08:05:59;;;;;;;0.40;0.40;;;;;;;;;;4961932;28;20026;-64
2023/10/04 08:08:24;;;;;;;0.40;0.40;;;;;;;;;;4963436;28;20149;-64
2023/10/04 08:10:50;;;;;;;0.40;0.40;;;;;;;;;;4965995;28;20477;-66
2023/10/04 08:13:16;;;;;;;0.40;0.40;;;;;;;;;;4963197;28;20027;-64
2023/10/04 08:15:41;;;;;;;0.40;0.40;;;;;;;;;;4967900;28;20027;-64
2023/10/04 08:18:07;;;;;;;0.40;0.40;;;;;;;;;;4965914;28;20455;-64
2023/10/04 08:20:33;;;;;;;0.40;0.40;;;;;;;;;;4963239;28;20479;-63
2023/10/04 08:22:58;;;;;;;0.40;0.40;;;;;;;;;;4969238;28;20731;-64
2023/10/04 08:25:24;;;;;;;0.40;0.40;;;;;;;;;;4964165;28;20026;-62
2023/10/04 08:27:50;;;;;;;0.35;0.35;;;;;;;;;;4968794;28;20181;-63
2023/10/04 08:30:16;;;;;;;0.40;0.40;;;;;;;;;;4960441;28;20487;-63
2023/10/04 08:32:43;;;;;;;0.30;0.30;;;;;;;;;;4975388;28;20597;-64
2023/10/04 08:35:09;;;;;;;0.40;0.40;;;;;;;;;;4981420;28;20043;-62
2023/10/04 08:37:34;;;;;;;0.30;0.30;;;;;;;;;;4963303;28;20192;-65
2023/10/04 08:40:00;;;;;;;0.40;0.40;;;;;;;;;;4964258;28;20100;-65
2023/10/04 08:42:28;;;;;;;0.40;0.40;;;;;;;;;;4968185;28;20019;-64
2023/10/04 08:44:53;;;;;;;0.30;0.30;;;;;;;;;;4962629;28;20035;-67
2023/10/04 08:47:22;;;;;;;0.30;0.30;;;;;;;;;;4968240;28;20396;-65
2023/10/04 08:49:53;;;;;;;0.32;0.32;;;;;;;;;;4966085;28;20027;-64
2023/10/04 08:52:37;;;;;;;0.30;0.30;;;;;;;;;;4966918;28;20027;-64
2023/10/04 08:55:07;;;;;;;0.30;0.30;;;;;;;;;;4985257;28;20042;-63
2023/10/04 08:57:38;;;;;;;0.40;0.40;;;;;;;;;;4979190;28;20480;-65
2023/10/04 09:00:10;;;;;;;0.40;0.40;;;;;;;;;;4966801;28;20465;-65
2023/10/04 09:02:36;;;;;;;0.40;0.40;;;;;;;;;;4967270;28;20137;-65
2023/10/04 09:05:04;;;;;;;0.40;0.40;;;;;;;;;;4961671;28;20050;-63
2023/10/04 09:07:30;;;;;;;0.40;0.40;;;;;;;;;;4967589;28;20053;-63
2023/10/04 09:09:56;;;;;;;0.32;0.32;;;;;;;;;;4964264;28;20018;-65
2023/10/04 09:12:22;;;;;;;0.40;0.40;;;;;;;;;;4965682;28;20174;-66
2023/10/04 09:14:48;;;;;;;0.30;0.30;;;;;;;;;;4973286;28;20106;-65
2023/10/04 09:17:14;;;;;;;0.30;0.30;;;;;;;;;;4961972;28;20035;-65
2023/10/04 09:19:44;;;;;;;0.40;0.40;;;;;;;;;;4964026;28;20073;-66
2023/10/04 09:22:10;;;;;;;0.30;0.30;;;;;;;;;;4963827;28;20023;-65
2023/10/04 09:24:50;;;;;;;0.40;0.40;;;;;;;;;;4966155;28;20475;-65
2023/10/04 09:27:16;;;;;;;0.30;0.30;;;;;;;;;;4970944;28;20027;-65
2023/10/04 09:29:41;;;;;;;0.40;0.40;;;;;;;;;;4964610;28;20209;-66
2023/10/04 09:32:07;;;;;;;0.30;0.30;;;;;;;;;;4969234;28;20030;-65
2023/10/04 09:34:33;;;;;;;0.30;0.30;;;;;;;;;;4961770;28;20106;-65
2023/10/04 09:36:58;;;;;;;0.30;0.30;;;;;;;;;;4965608;28;20381;-67
2023/10/04 09:39:25;;;;;;;0.30;0.30;;;;;;;;;;4969293;28;20039;-67
2023/10/04 09:42:02;;;;;;;0.30;0.30;;;;;;;;;;4961252;28;20019;-67
2023/10/04 09:44:29;;;;;;;0.30;0.30;;;;;;;;;;4986495;28;20388;-65
2023/10/04 09:47:00;;;;;;;0.30;0.30;;;;;;;;;;4976893;28;20395;-66
2023/10/04 09:49:31;;;;;;;0.30;0.30;;;;;;;;;;4963489;28;20042;-65
2023/10/04 09:51:57;;;;;;;0.30;0.30;;;;;;;;;;4966940;28;20114;-67
2023/10/04 09:54:23;;;;;;;0.30;0.30;;;;;;;;;;4958799;28;20158;-65
2023/10/04 09:56:51;;;;;;;0.30;0.30;;;;;;;;;;4975665;28;20077;-67
2023/10/04 09:59:19;;;;;;;0.30;0.30;;;;;;;;;;4967026;28;20026;-66
2023/10/04 10:01:46;;;;;;;0.30;0.30;;;;;;;;;;4962996;28;20101;-65
2023/10/04 10:04:16;;;;;;;0.30;0.30;;;;;;;;;;4967406;28;20038;-65
2023/10/04 10:06:51;;;;;;;0.30;0.30;;;;;;;;;;4964479;28;20028;-65
2023/10/04 10:09:19;;;;;;;0.30;0.30;;;;;;;;;;4964820;28;20042;-67
2023/10/04 10:11:46;;;;;;;0.30;0.30;;;;;;;;;;4960212;28;20045;-67
2023/10/04 10:14:14;;;;;;;0.30;0.30;;;;;;;;;;4963748;28;20651;-66
2023/10/04 10:16:41;;;;;;;0.30;0.30;;;;;;;;;;4967228;28;20077;-66
2023/10/04 10:19:07;;;;;;;0.30;0.30;;;;;;;;;;4962388;28;20027;-67
2023/10/04 10:21:50;;;;;;;0.30;0.30;;;;;;;;;;4963168;28;20435;-65
2023/10/04 10:24:16;;;;;;;0.30;0.30;;;;;;;;;;4970169;28;20031;-65
2023/10/04 10:26:41;;;;;;;0.30;0.30;;;;;;;;;;4962995;28;20141;-66
2023/10/04 10:29:19;;;;;;;0.30;0.30;;;;;;;;;;4957684;28;20086;-65
2023/10/04 10:31:52;;;;;;;0.30;0.30;;;;;;;;;;4969467;28;20447;-66
2023/10/04 10:34:17;;;;;;;0.20;0.20;;;;;;;;;;4960332;28;20058;-67
2023/10/04 10:36:42;;;;;;;0.20;0.20;;;;;;;;;;4967271;28;20097;-65
2023/10/04 10:39:30;;;;;;;0.20;0.20;;;;;;;;;;4968147;28;20018;-66
2023/10/04 10:41:55;;;;;;;0.30;0.30;;;;;;;;;;4966259;28;20464;-66
2023/10/04 10:44:23;;;;;;;0.20;0.20;;;;;;;;;;4967723;28;20030;-68
2023/10/04 10:47:08;;;;;;;0.20;0.20;;;;;;;;;;4959334;28;20038;-66
2023/10/04 10:49:36;;;;;;;0.30;0.30;;;;;;;;;;4957360;28;20073;-66
2023/10/04 10:52:02;;;;;;;0.30;0.30;;;;;;;;;;4967229;28;20041;-65
2023/10/04 10:54:27;;;;;;;0.20;0.20;;;;;;;;;;4957746;28;20027;-66
2023/10/04 10:56:52;;;;;;;0.30;0.30;;;;;;;;;;4962376;28;20109;-66
2023/10/04 10:59:18;;;;;;;0.30;0.30;;;;;;;;;;4960150;28;20480;-65
2023/10/04 11:01:43;;;;;;;0.30;0.30;;;;;;;;;;4957802;28;20054;-67
2023/10/04 11:04:08;;;;;;;0.30;0.30;;;;;;;;;;4969910;28;20042;-65
2023/10/04 11:06:35;;;;;;;0.30;0.30;;;;;;;;;;4962888;28;20451;-64
2023/10/04 11:09:01;;;;;;;0.30;0.30;;;;;;;;;;4966083;28;20033;-65
2023/10/04 11:11:26;;;;;;;0.20;0.20;;;;;;;;;;4959009;28;20030;-65
2023/10/04 11:13:53;;;;;;;0.20;0.20;;;;;;;;;;4961250;28;20101;-65
2023/10/04 11:16:21;;;;;;;0.20;0.20;;;;;;;;;;4967782;28;20027;-66
2023/10/04 11:18:47;;;;;;;0.20;0.20;;;;;;;;;;4964788;28;20041;-66
2023/10/04 11:21:13;;;;;;;0.20;0.20;;;;;;;;;;4970042;28;20030;-65
2023/10/04 11:23:39;;;;;;;0.10;0.10;;;;;;;;;;4966818;28;20037;-67
2023/10/04 11:26:06;;;;;;;0.20;0.20;;;;;;;;;;4958711;28;20368;-66
2023/10/04 11:28:32;;;;;;;0.10;0.10;;;;;;;;;;4976191;28;20038;-68
2023/10/04 11:30:57;;;;;;;0.10;0.10;;;;;;;;;;4961218;28;20669;-69
2023/10/04 11:33:23;;;;;;;0.10;0.10;;;;;;;;;;4966408;28;20019;-66
2023/10/04 11:35:49;;;;;;;0.00;0.00;;;;;;;;;;4961278;28;20026;-66
2023/10/04 11:38:19;;;;;;;0.00;0.00;;;;;;;;;;4959213;28;20123;-67
2023/10/04 11:40:48;;;;;;;0.08;0.08;;;;;;;;;;4967693;28;20051;-66
2023/10/04 11:43:14;;;;;;;0.00;0.00;;;;;;;;;;4960234;28;20086;-67
2023/10/04 11:45:40;;;;;;;0.10;0.10;;;;;;;;;;4961870;28;20178;-66
2023/10/04 11:48:07;;;;;;;0.10;0.10;;;;;;;;;;4967385;28;20039;-66
2023/10/04 11:50:46;;;;;;;0.10;0.10;;;;;;;;;;4962327;28;20275;-66
2023/10/04 11:53:12;;;;;;;0.20;0.20;;;;;;;;;;4967110;28;20054;-66
2023/10/04 11:55:38;;;;;;;0.20;0.20;;;;;;;;;;4954914;28;20420;-67
2023/10/04 11:58:04;;;;;;;0.10;0.10;;;;;;;;;;4960593;28;20019;-66
2023/10/04 12:00:30;;;;;;;0.10;0.10;;;;;;;;;;4969200;28;20126;-69
2023/10/04 12:02:55;;;;;;;0.10;0.10;;;;;;;;;;4960013;28;20110;-68
2023/10/04 12:05:20;;;;;;;0.10;0.10;;;;;;;;;;4972663;28;20030;-67
2023/10/04 12:07:47;;;;;;;0.10;0.10;;;;;;;;;;4963345;28;20058;-68
2023/10/04 12:10:13;;;;;;;0.10;0.10;;;;;;;;;;4958579;28;20031;-66
2023/10/04 12:12:38;;;;;;;0.10;0.10;;;;;;;;;;4966804;28;20412;-66
2023/10/04 12:15:08;;;;;;;0.20;0.20;;;;;;;;;;4954917;28;20027;-67
2023/10/04 12:17:34;;;;;;;0.10;0.10;;;;;;;;;;4970857;28;20093;-66
2023/10/04 12:19:59;;;;;;;0.10;0.10;;;;;;;;;;4962930;28;20049;-67
2023/10/04 12:22:25;;;;;;;0.10;0.10;;;;;;;;;;4965871;28;20363;-67
2023/10/04 12:24:50;;;;;;;0.10;0.10;;;;;;;;;;4968267;28;20082;-67
2023/10/04 12:27:21;;;;;;;0.10;0.10;;;;;;;;;;4963024;28;20469;-67
2023/10/04 12:29:47;;;;;;;0.10;0.10;;;;;;;;;;4968008;28;20034;-66
2023/10/04 12:32:14;;;;;;;0.10;0.10;;;;;;;;;;4960154;28;20030;-66
2023/10/04 12:34:40;;;;;;;0.10;0.10;;;;;;;;;;4963923;28;20098;-66
2023/10/04 12:37:06;;;;;;;0.10;0.10;;;;;;;;;;4962985;28;20134;-67
2023/10/04 12:39:32;;;;;;;0.10;0.10;;;;;;;;;;4961689;28;20108;-68
2023/10/04 12:42:00;;;;;;;0.10;0.10;;;;;;;;;;4966919;28;20035;-67
2023/10/04 12:44:26;;;;;;;0.10;0.10;;;;;;;;;;4960750;28;20716;-66
2023/10/04 12:46:52;;;;;;;0.10;0.10;;;;;;;;;;4966001;28;20077;-67
2023/10/04 12:49:22;;;;;;;0.10;0.10;;;;;;;;;;4966021;28;20100;-66
2023/10/04 12:51:48;;;;;;;0.10;0.10;;;;;;;;;;4956487;28;20038;-67
2023/10/04 12:54:13;;;;;;;0.10;0.10;;;;;;;;;;4963582;28;20037;-67
2023/10/04 12:56:39;;;;;;;0.10;0.10;;;;;;;;;;4963938;28;20043;-69
2023/10/04 12:59:05;;;;;;;0.10;0.10;;;;;;;;;;4959017;28;20034;-67
2023/10/04 13:01:30;;;;;;;0.10;0.10;;;;;;;;;;4969162;28;20737;-66
2023/10/04 13:03:55;;;;;;;0.10;0.10;;;;;;;;;;4957697;28;20042;-68
2023/10/04 13:06:21;;;;;;;0.10;0.10;;;;;;;;;;4963971;28;20022;-68
2023/10/04 13:08:46;;;;;;;0.10;0.10;;;;;;;;;;4970765;28;20480;-68
2023/10/04 13:11:12;;;;;;;0.10;0.10;;;;;;;;;;4959798;28;20571;-67
2023/10/04 13:13:38;;;;;;;0.10;0.10;;;;;;;;;;4970835;28;20043;-68
2023/10/04 13:16:04;;;;;;;0.10;0.10;;;;;;;;;;4968015;28;20027;-67
2023/10/04 13:18:29;;;;;;;0.10;0.10;;;;;;;;;;4965136;28;20081;-67
2023/10/04 13:20:55;;;;;;;0.10;0.10;;;;;;;;;;4968991;28;20109;-67
2023/10/04 13:23:20;;;;;;;0.00;0.00;;;;;;;;;;4963326;28;20025;-67
2023/10/04 13:25:46;;;;;;;0.00;0.00;;;;;;;;;;4970408;28;20041;-67
2023/10/04 13:28:17;;;;;;;0.00;0.00;;;;;;;;;;4964567;28;20042;-67
2023/10/04 13:30:45;;;;;;;0.00;0.00;;;;;;;;;;4963110;28;20042;-67
2023/10/04 13:33:11;;;;;;;0.00;0.00;;;;;;;;;;4971190;28;20445;-67
2023/10/04 13:35:36;;;;;;;0.00;0.00;;;;;;;;;;4962243;28;20503;-67
2023/10/04 13:38:03;;;;;;;0.00;0.00;;;;;;;;;;4968925;28;20042;-67
2023/10/04 13:40:29;;;;;;;0.10;0.10;;;;;;;;;;4964496;28;20050;-67
2023/10/04 13:42:54;;;;;;;0.00;0.00;;;;;;;;;;4964765;28;20173;-67
2023/10/04 13:45:19;;;;;;;0.10;0.10;;;;;;;;;;4967706;28;20027;-67
2023/10/04 13:47:45;;;;;;;0.10;0.10;;;;;;;;;;4961563;28;20360;-67
2023/10/04 13:50:11;;;;;;;0.10;0.10;;;;;;;;;;4962248;28;20035;-67
2023/10/04 13:52:38;;;;;;;0.10;0.10;;;;;;;;;;4966838;28;20693;-67
2023/10/04 13:55:04;;;;;;;0.10;0.10;;;;;;;;;;4964721;28;20038;-67
2023/10/04 13:57:29;;;;;;;0.10;0.10;;;;;;;;;;4971490;28;20129;-67
2023/10/04 13:59:54;;;;;;;0.10;0.10;;;;;;;;;;4964459;28;20567;-67
2023/10/04 14:02:20;;;;;;;0.10;0.10;;;;;;;;;;4970117;28;20045;-67
2023/10/04 14:04:45;;;;;;;0.10;0.10;;;;;;;;;;4962093;28;21086;-67
2023/10/04 14:07:11;;;;;;;0.10;0.10;;;;;;;;;;4960484;28;20504;-66
2023/10/04 14:09:37;;;;;;;0.07;0.07;;;;;;;;;;4967090;28;20723;-67
2023/10/04 14:12:03;;;;;;;0.00;0.00;;;;;;;;;;4966721;28;20038;-67
2023/10/04 14:14:29;;;;;;;;;;;;;;;;;;4963418;28;20031;-67
2023/10/04 14:16:55;;;;;;;0.00;0.00;;;;;;;;;;4966739;28;19910;-66
2023/10/04 14:19:20;;;;;;;0.00;0.00;;;;;;;;;;4966020;28;20097;-66
2023/10/04 14:21:45;;;;;;;0.10;0.10;;;;;;;;;;4968991;28;20055;-66
2023/10/04 14:24:11;;;;;;;0.10;0.10;;;;;;;;;;4965314;28;20019;-66
2023/10/04 14:26:38;;;;;;;0.10;0.10;;;;;;;;;;4971710;28;20050;-66
2023/10/04 14:29:04;;;;;;;0.08;0.08;;;;;;;;;;4961153;28;20047;-66
2023/10/04 14:31:29;;;;;;;0.10;0.10;;;;;;;;;;4960474;28;20018;-67
2023/10/04 14:33:55;;;;;;;0.10;0.10;;;;;;;;;;4972175;28;20038;-66
2023/10/04 14:36:21;;;;;;;0.10;0.10;;;;;;;;;;4970146;28;20053;-66
2023/10/04 14:38:52;;;;;;;0.10;0.10;;;;;;;;;;4971465;28;20030;-66
2023/10/04 14:41:18;;;;;;;0.10;0.10;;;;;;;;;;4961894;28;20371;-66
2023/10/04 14:43:43;;;;;;;0.10;0.10;;;;;;;;;;4959806;28;20051;-66
2023/10/04 14:46:08;;;;;;;0.10;0.10;;;;;;;;;;4971998;28;20669;-66
2023/10/04 14:48:34;;;;;;;0.10;0.10;;;;;;;;;;4960713;28;20030;-66
2023/10/04 14:50:59;;;;;;;0.10;0.10;;;;;;;;;;4969598;28;20031;-66